sensor_id;sensor_type;location;lat;lon;timestamp;temperature;humidity
75134;HTU21D;73631;44.326;40.200;2024-02-26T00:00:51;1.53;53.51
75134;HTU21D;73631;44.326;40.200;2024-02-26T00:03:18;1.51;53.52
75134;HTU21D;73631;44.326;40.200;2024-02-26T00:05:44;1.47;53.68
75134;HTU21D;73631;44.326;40.200;2024-02-26T00:08:10;1.47;53.68
75134;HTU21D;73631;44.326;40.200;2024-02-26T00:10:37;1.45;53.62
75134;HTU21D;73631;44.326;40.200;2024-02-26T00:13:03;1.41;53.72
75134;HTU21D;73631;44.326;40.200;2024-02-26T00:15:30;1.39;53.83
75134;HTU21D;73631;44.326;40.200;2024-02-26T00:17:58;1.39;53.99
75134;HTU21D;73631;44.326;40.200;2024-02-26T00:20:24;1.38;53.97
75134;HTU21D;73631;44.326;40.200;2024-02-26T00:22:50;1.36;54.07
75134;HTU21D;73631;44.326;40.200;2024-02-26T00:25:17;1.35;54.14
75134;HTU21D;73631;44.326;40.200;2024-02-26T00:27:43;1.33;54.21
75134;HTU21D;73631;44.326;40.200;2024-02-26T00:30:10;1.33;54.15
75134;HTU21D;73631;44.326;40.200;2024-02-26T00:32:38;1.32;54.13
75134;HTU21D;73631;44.326;40.200;2024-02-26T00:35:04;1.29;54.09
75134;HTU21D;73631;44.326;40.200;2024-02-26T00:37:31;1.26;54.10
75134;HTU21D;73631;44.326;40.200;2024-02-26T00:39:57;1.25;54.13
75134;HTU21D;73631;44.326;40.200;2024-02-26T00:42:23;1.24;54.14
75134;HTU21D;73631;44.326;40.200;2024-02-26T00:44:50;1.27;54.18
75134;HTU21D;73631;44.326;40.200;2024-02-26T00:47:16;1.27;54.16
75134;HTU21D;73631;44.326;40.200;2024-02-26T00:49:42;1.26;54.13
75134;HTU21D;73631;44.326;40.200;2024-02-26T00:52:09;1.26;54.16
75134;HTU21D;73631;44.326;40.200;2024-02-26T00:54:35;1.25;54.16
75134;HTU21D;73631;44.326;40.200;2024-02-26T00:57:01;1.24;54.14
75134;HTU21D;73631;44.326;40.200;2024-02-26T00:59:28;1.23;54.12
75134;HTU21D;73631;44.326;40.200;2024-02-26T01:01:54;1.19;54.07
75134;HTU21D;73631;44.326;40.200;2024-02-26T01:04:20;1.17;54.10
75134;HTU21D;73631;44.326;40.200;2024-02-26T01:06:47;1.13;54.15
75134;HTU21D;73631;44.326;40.200;2024-02-26T01:09:13;1.13;54.23
75134;HTU21D;73631;44.326;40.200;2024-02-26T01:11:39;1.14;54.25
75134;HTU21D;73631;44.326;40.200;2024-02-26T01:14:06;1.16;54.20
75134;HTU21D;73631;44.326;40.200;2024-02-26T01:16:34;1.14;54.23
75134;HTU21D;73631;44.326;40.200;2024-02-26T01:19:01;1.13;54.20
75134;HTU21D;73631;44.326;40.200;2024-02-26T01:21:27;1.11;54.22
75134;HTU21D;73631;44.326;40.200;2024-02-26T01:23:55;1.07;54.26
75134;HTU21D;73631;44.326;40.200;2024-02-26T01:26:21;1.05;54.30
75134;HTU21D;73631;44.326;40.200;2024-02-26T01:28:48;1.03;54.38
75134;HTU21D;73631;44.326;40.200;2024-02-26T01:31:14;1.01;54.45
75134;HTU21D;73631;44.326;40.200;2024-02-26T01:33:41;0.99;54.49
75134;HTU21D;73631;44.326;40.200;2024-02-26T01:36:07;1.01;54.48
75134;HTU21D;73631;44.326;40.200;2024-02-26T01:38:33;0.97;54.47
75134;HTU21D;73631;44.326;40.200;2024-02-26T01:41:00;0.98;54.55
75134;HTU21D;73631;44.326;40.200;2024-02-26T01:43:26;0.99;54.62
75134;HTU21D;73631;44.326;40.200;2024-02-26T01:45:53;0.99;54.59
75134;HTU21D;73631;44.326;40.200;2024-02-26T01:48:21;0.96;54.55
75134;HTU21D;73631;44.326;40.200;2024-02-26T01:50:47;0.94;54.55
75134;HTU21D;73631;44.326;40.200;2024-02-26T01:53:14;0.90;54.47
75134;HTU21D;73631;44.326;40.200;2024-02-26T01:55:40;0.86;54.55
75134;HTU21D;73631;44.326;40.200;2024-02-26T01:58:07;0.81;54.59
75134;HTU21D;73631;44.326;40.200;2024-02-26T02:00:33;0.77;54.65
75134;HTU21D;73631;44.326;40.200;2024-02-26T02:03:01;0.71;54.68
75134;HTU21D;73631;44.326;40.200;2024-02-26T02:05:29;1.06;56.01
75134;HTU21D;73631;44.326;40.200;2024-02-26T02:07:57;1.58;55.96
75134;HTU21D;73631;44.326;40.200;2024-02-26T02:10:26;1.52;54.84
75134;HTU21D;73631;44.326;40.200;2024-02-26T02:12:52;1.43;54.49
75134;HTU21D;73631;44.326;40.200;2024-02-26T02:15:20;1.29;54.57
75134;HTU21D;73631;44.326;40.200;2024-02-26T02:17:46;1.16;54.75
75134;HTU21D;73631;44.326;40.200;2024-02-26T02:20:17;1.04;54.91
75134;HTU21D;73631;44.326;40.200;2024-02-26T02:22:47;0.93;55.04
75134;HTU21D;73631;44.326;40.200;2024-02-26T02:25:14;0.84;55.16
75134;HTU21D;73631;44.326;40.200;2024-02-26T02:27:41;0.77;55.26
75134;HTU21D;73631;44.326;40.200;2024-02-26T02:30:09;0.71;55.37
75134;HTU21D;73631;44.326;40.200;2024-02-26T02:32:38;0.67;55.52
75134;HTU21D;73631;44.326;40.200;2024-02-26T02:35:05;0.62;55.54
75134;HTU21D;73631;44.326;40.200;2024-02-26T02:37:32;0.58;55.55
75134;HTU21D;73631;44.326;40.200;2024-02-26T02:39:58;0.51;55.53
75134;HTU21D;73631;44.326;40.200;2024-02-26T02:42:26;0.44;55.61
75134;HTU21D;73631;44.326;40.200;2024-02-26T02:44:52;0.38;55.74
75134;HTU21D;73631;44.326;40.200;2024-02-26T02:47:19;0.37;55.82
75134;HTU21D;73631;44.326;40.200;2024-02-26T02:49:45;0.38;55.86
75134;HTU21D;73631;44.326;40.200;2024-02-26T02:52:11;0.40;55.86
75134;HTU21D;73631;44.326;40.200;2024-02-26T02:54:38;0.39;55.85
75134;HTU21D;73631;44.326;40.200;2024-02-26T02:57:06;0.40;55.92
75134;HTU21D;73631;44.326;40.200;2024-02-26T02:59:32;0.43;55.87
75134;HTU21D;73631;44.326;40.200;2024-02-26T03:01:59;0.44;55.83
75134;HTU21D;73631;44.326;40.200;2024-02-26T03:04:25;0.44;55.79
75134;HTU21D;73631;44.326;40.200;2024-02-26T03:06:52;0.42;55.74
75134;HTU21D;73631;44.326;40.200;2024-02-26T03:09:18;0.38;55.75
75134;HTU21D;73631;44.326;40.200;2024-02-26T03:11:44;0.35;55.74
75134;HTU21D;73631;44.326;40.200;2024-02-26T03:14:11;0.30;55.77
75134;HTU21D;73631;44.326;40.200;2024-02-26T03:16:37;0.28;55.81
75134;HTU21D;73631;44.326;40.200;2024-02-26T03:19:04;0.28;55.89
75134;HTU21D;73631;44.326;40.200;2024-02-26T03:21:31;0.25;55.83
75134;HTU21D;73631;44.326;40.200;2024-02-26T03:23:57;0.23;55.86
75134;HTU21D;73631;44.326;40.200;2024-02-26T03:26:24;0.21;55.96
75134;HTU21D;73631;44.326;40.200;2024-02-26T03:28:50;0.22;56.02
75134;HTU21D;73631;44.326;40.200;2024-02-26T03:31:17;0.20;56.16
75134;HTU21D;73631;44.326;40.200;2024-02-26T03:33:43;0.22;56.15
75134;HTU21D;73631;44.326;40.200;2024-02-26T03:36:09;0.23;56.13
75134;HTU21D;73631;44.326;40.200;2024-02-26T03:38:37;0.25;56.10
75134;HTU21D;73631;44.326;40.200;2024-02-26T03:41:03;0.25;56.08
75134;HTU21D;73631;44.326;40.200;2024-02-26T03:43:30;0.27;56.14
75134;HTU21D;73631;44.326;40.200;2024-02-26T03:45:56;0.29;56.21
75134;HTU21D;73631;44.326;40.200;2024-02-26T03:48:22;0.30;56.16
75134;HTU21D;73631;44.326;40.200;2024-02-26T03:50:49;0.32;56.03
75134;HTU21D;73631;44.326;40.200;2024-02-26T03:53:15;0.25;56.03
75134;HTU21D;73631;44.326;40.200;2024-02-26T03:55:41;0.21;56.04
75134;HTU21D;73631;44.326;40.200;2024-02-26T03:58:08;0.16;56.06
75134;HTU21D;73631;44.326;40.200;2024-02-26T04:00:35;0.10;56.04
75134;HTU21D;73631;44.326;40.200;2024-02-26T04:03:01;0.04;56.15
75134;HTU21D;73631;44.326;40.200;2024-02-26T04:05:28;0.02;56.26
75134;HTU21D;73631;44.326;40.200;2024-02-26T04:07:55;0.01;56.27
75134;HTU21D;73631;44.326;40.200;2024-02-26T04:10:22;0.01;56.20
75134;HTU21D;73631;44.326;40.200;2024-02-26T04:12:48;0.01;56.14
75134;HTU21D;73631;44.326;40.200;2024-02-26T04:15:15;-0.01;56.20
75134;HTU21D;73631;44.326;40.200;2024-02-26T04:17:41;-0.02;56.37
75134;HTU21D;73631;44.326;40.200;2024-02-26T04:20:12;-0.06;56.49
75134;HTU21D;73631;44.326;40.200;2024-02-26T04:22:39;-0.10;56.70
75134;HTU21D;73631;44.326;40.200;2024-02-26T04:25:05;-0.12;57.10
75134;HTU21D;73631;44.326;40.200;2024-02-26T04:27:31;-0.10;57.06
75134;HTU21D;73631;44.326;40.200;2024-02-26T04:29:58;-0.08;57.00
75134;HTU21D;73631;44.326;40.200;2024-02-26T04:32:24;-0.03;56.92
75134;HTU21D;73631;44.326;40.200;2024-02-26T04:34:51;-0.01;56.91
75134;HTU21D;73631;44.326;40.200;2024-02-26T04:37:17;0.01;56.85
75134;HTU21D;73631;44.326;40.200;2024-02-26T04:39:43;0.03;56.74
75134;HTU21D;73631;44.326;40.200;2024-02-26T04:42:10;0.03;56.68
75134;HTU21D;73631;44.326;40.200;2024-02-26T04:44:36;0.03;56.62
75134;HTU21D;73631;44.326;40.200;2024-02-26T04:47:03;0.03;56.68
75134;HTU21D;73631;44.326;40.200;2024-02-26T04:49:29;0.03;56.68
75134;HTU21D;73631;44.326;40.200;2024-02-26T04:51:56;0.03;56.68
75134;HTU21D;73631;44.326;40.200;2024-02-26T04:54:22;0.03;56.64
75134;HTU21D;73631;44.326;40.200;2024-02-26T04:56:48;0.03;56.84
75134;HTU21D;73631;44.326;40.200;2024-02-26T04:59:15;0.08;56.87
75134;HTU21D;73631;44.326;40.200;2024-02-26T05:01:41;0.14;56.81
75134;HTU21D;73631;44.326;40.200;2024-02-26T05:04:07;0.15;56.80
75134;HTU21D;73631;44.326;40.200;2024-02-26T05:06:36;0.21;56.88
75134;HTU21D;73631;44.326;40.200;2024-02-26T05:09:04;0.28;57.03
75134;HTU21D;73631;44.326;40.200;2024-02-26T05:11:30;0.35;57.10
75134;HTU21D;73631;44.326;40.200;2024-02-26T05:13:57;0.46;57.16
75134;HTU21D;73631;44.326;40.200;2024-02-26T05:16:23;0.55;57.26
75134;HTU21D;73631;44.326;40.200;2024-02-26T05:18:52;0.63;57.09
75134;HTU21D;73631;44.326;40.200;2024-02-26T05:21:19;0.68;57.03
75134;HTU21D;73631;44.326;40.200;2024-02-26T05:23:45;0.72;57.14
75134;HTU21D;73631;44.326;40.200;2024-02-26T05:26:11;0.76;57.13
75134;HTU21D;73631;44.326;40.200;2024-02-26T05:28:38;0.80;57.29
75134;HTU21D;73631;44.326;40.200;2024-02-26T05:31:05;0.88;57.35
75134;HTU21D;73631;44.326;40.200;2024-02-26T05:33:32;0.96;57.45
75134;HTU21D;73631;44.326;40.200;2024-02-26T05:35:59;1.06;57.51
75134;HTU21D;73631;44.326;40.200;2024-02-26T05:38:29;1.17;57.58
75134;HTU21D;73631;44.326;40.200;2024-02-26T05:40:58;1.28;57.57
75134;HTU21D;73631;44.326;40.200;2024-02-26T05:43:25;1.41;57.54
75134;HTU21D;73631;44.326;40.200;2024-02-26T05:45:52;1.55;57.68
75134;HTU21D;73631;44.326;40.200;2024-02-26T05:48:19;1.77;57.63
75134;HTU21D;73631;44.326;40.200;2024-02-26T05:50:46;1.97;57.38
75134;HTU21D;73631;44.326;40.200;2024-02-26T05:53:12;2.14;57.17
75134;HTU21D;73631;44.326;40.200;2024-02-26T05:55:39;2.34;57.09
75134;HTU21D;73631;44.326;40.200;2024-02-26T05:58:05;2.54;56.93
75134;HTU21D;73631;44.326;40.200;2024-02-26T06:00:32;2.75;56.71
75134;HTU21D;73631;44.326;40.200;2024-02-26T06:02:58;2.95;56.47
75134;HTU21D;73631;44.326;40.200;2024-02-26T06:05:25;3.14;56.27
75134;HTU21D;73631;44.326;40.200;2024-02-26T06:07:51;3.31;56.02
75134;HTU21D;73631;44.326;40.200;2024-02-26T06:10:18;3.47;55.88
75134;HTU21D;73631;44.326;40.200;2024-02-26T06:12:47;3.64;55.83
75134;HTU21D;73631;44.326;40.200;2024-02-26T06:15:14;3.84;55.65
75134;HTU21D;73631;44.326;40.200;2024-02-26T06:17:40;4.02;55.45
75134;HTU21D;73631;44.326;40.200;2024-02-26T06:20:07;4.20;55.36
75134;HTU21D;73631;44.326;40.200;2024-02-26T06:22:38;4.45;55.24
75134;HTU21D;73631;44.326;40.200;2024-02-26T06:25:04;4.67;54.94
75134;HTU21D;73631;44.326;40.200;2024-02-26T06:27:31;4.88;54.82
75134;HTU21D;73631;44.326;40.200;2024-02-26T06:29:57;5.03;54.56
75134;HTU21D;73631;44.326;40.200;2024-02-26T06:32:24;5.16;54.30
75134;HTU21D;73631;44.326;40.200;2024-02-26T06:34:50;5.30;54.09
75134;HTU21D;73631;44.326;40.200;2024-02-26T06:37:16;5.42;53.97
75134;HTU21D;73631;44.326;40.200;2024-02-26T06:39:43;5.59;53.76
75134;HTU21D;73631;44.326;40.200;2024-02-26T06:42:09;5.71;53.59
75134;HTU21D;73631;44.326;40.200;2024-02-26T06:44:36;5.87;53.41
75134;HTU21D;73631;44.326;40.200;2024-02-26T06:47:02;6.01;53.23
75134;HTU21D;73631;44.326;40.200;2024-02-26T06:49:29;6.14;53.03
75134;HTU21D;73631;44.326;40.200;2024-02-26T06:51:55;6.29;52.82
75134;HTU21D;73631;44.326;40.200;2024-02-26T06:54:22;6.42;52.45
75134;HTU21D;73631;44.326;40.200;2024-02-26T06:56:48;6.57;52.45
75134;HTU21D;73631;44.326;40.200;2024-02-26T06:59:15;6.71;52.30
75134;HTU21D;73631;44.326;40.200;2024-02-26T07:01:41;6.85;52.25
75134;HTU21D;73631;44.326;40.200;2024-02-26T07:04:08;7.01;52.01
75134;HTU21D;73631;44.326;40.200;2024-02-26T07:06:37;7.16;52.02
75134;HTU21D;73631;44.326;40.200;2024-02-26T07:09:04;7.30;51.63
75134;HTU21D;73631;44.326;40.200;2024-02-26T07:11:32;7.45;51.42
75134;HTU21D;73631;44.326;40.200;2024-02-26T07:13:58;7.58;51.29
75134;HTU21D;73631;44.326;40.200;2024-02-26T07:16:26;7.74;51.00
75134;HTU21D;73631;44.326;40.200;2024-02-26T07:18:53;7.91;50.64
75134;HTU21D;73631;44.326;40.200;2024-02-26T07:21:19;8.07;50.50
75134;HTU21D;73631;44.326;40.200;2024-02-26T07:23:46;8.23;50.34
75134;HTU21D;73631;44.326;40.200;2024-02-26T07:26:14;8.38;50.08
75134;HTU21D;73631;44.326;40.200;2024-02-26T07:28:40;8.51;49.94
75134;HTU21D;73631;44.326;40.200;2024-02-26T07:31:07;8.70;50.04
75134;HTU21D;73631;44.326;40.200;2024-02-26T07:33:33;8.90;49.31
75134;HTU21D;73631;44.326;40.200;2024-02-26T07:36:05;9.07;48.93
75134;HTU21D;73631;44.326;40.200;2024-02-26T07:38:33;9.25;48.91
75134;HTU21D;73631;44.326;40.200;2024-02-26T07:41:02;9.42;48.59
75134;HTU21D;73631;44.326;40.200;2024-02-26T07:43:29;9.59;48.53
75134;HTU21D;73631;44.326;40.200;2024-02-26T07:45:55;9.76;48.65
75134;HTU21D;73631;44.326;40.200;2024-02-26T07:48:22;9.89;48.02
75134;HTU21D;73631;44.326;40.200;2024-02-26T07:50:48;10.05;47.80
75134;HTU21D;73631;44.326;40.200;2024-02-26T07:53:14;10.23;47.57
75134;HTU21D;73631;44.326;40.200;2024-02-26T07:55:41;10.45;47.44
75134;HTU21D;73631;44.326;40.200;2024-02-26T07:58:07;10.69;46.94
75134;HTU21D;73631;44.326;40.200;2024-02-26T08:00:34;10.89;46.75
75134;HTU21D;73631;44.326;40.200;2024-02-26T08:03:00;11.07;46.31
75134;HTU21D;73631;44.326;40.200;2024-02-26T08:05:27;11.24;46.54
75134;HTU21D;73631;44.326;40.200;2024-02-26T08:07:53;11.44;45.80
75134;HTU21D;73631;44.326;40.200;2024-02-26T08:10:21;11.62;45.70
75134;HTU21D;73631;44.326;40.200;2024-02-26T08:12:48;11.77;45.33
75134;HTU21D;73631;44.326;40.200;2024-02-26T08:15:14;12.02;45.19
75134;HTU21D;73631;44.326;40.200;2024-02-26T08:17:41;12.29;44.68
75134;HTU21D;73631;44.326;40.200;2024-02-26T08:20:07;12.50;44.16
75134;HTU21D;73631;44.326;40.200;2024-02-26T08:22:34;12.66;44.04
75134;HTU21D;73631;44.326;40.200;2024-02-26T08:25:01;12.79;43.67
75134;HTU21D;73631;44.326;40.200;2024-02-26T08:27:31;12.93;43.59
75134;HTU21D;73631;44.326;40.200;2024-02-26T08:29:57;13.07;43.41
75134;HTU21D;73631;44.326;40.200;2024-02-26T08:32:24;13.26;43.16
75134;HTU21D;73631;44.326;40.200;2024-02-26T08:34:50;13.53;42.87
75134;HTU21D;73631;44.326;40.200;2024-02-26T08:37:16;13.81;42.77
75134;HTU21D;73631;44.326;40.200;2024-02-26T08:39:43;13.99;42.55
75134;HTU21D;73631;44.326;40.200;2024-02-26T08:42:09;14.14;41.93
75134;HTU21D;73631;44.326;40.200;2024-02-26T08:44:35;14.30;41.70
75134;HTU21D;73631;44.326;40.200;2024-02-26T08:47:02;14.53;41.54
75134;HTU21D;73631;44.326;40.200;2024-02-26T08:49:28;14.75;40.96
75134;HTU21D;73631;44.326;40.200;2024-02-26T08:51:55;14.91;40.58
75134;HTU21D;73631;44.326;40.200;2024-02-26T08:54:22;15.07;40.41
75134;HTU21D;73631;44.326;40.200;2024-02-26T08:56:50;15.31;40.20
75134;HTU21D;73631;44.326;40.200;2024-02-26T08:59:16;15.56;39.73
75134;HTU21D;73631;44.326;40.200;2024-02-26T09:01:45;15.70;39.44
75134;HTU21D;73631;44.326;40.200;2024-02-26T09:04:12;15.88;39.32
75134;HTU21D;73631;44.326;40.200;2024-02-26T09:06:38;16.11;38.93
75134;HTU21D;73631;44.326;40.200;2024-02-26T09:09:05;16.37;40.62
75134;HTU21D;73631;44.326;40.200;2024-02-26T09:11:32;16.59;39.07
75134;HTU21D;73631;44.326;40.200;2024-02-26T09:13:58;16.76;38.30
75134;HTU21D;73631;44.326;40.200;2024-02-26T09:16:25;16.93;37.58
75134;HTU21D;73631;44.326;40.200;2024-02-26T09:18:51;17.07;37.37
75134;HTU21D;73631;44.326;40.200;2024-02-26T09:21:17;17.17;36.96
75134;HTU21D;73631;44.326;40.200;2024-02-26T09:23:52;17.31;36.76
75134;HTU21D;73631;44.326;40.200;2024-02-26T09:26:18;17.38;36.33
75134;HTU21D;73631;44.326;40.200;2024-02-26T09:28:45;17.49;36.15
75134;HTU21D;73631;44.326;40.200;2024-02-26T09:31:11;17.56;36.10
75134;HTU21D;73631;44.326;40.200;2024-02-26T09:33:38;17.58;35.95
75134;HTU21D;73631;44.326;40.200;2024-02-26T09:36:04;17.60;35.40
75134;HTU21D;73631;44.326;40.200;2024-02-26T09:38:32;17.72;35.40
75134;HTU21D;73631;44.326;40.200;2024-02-26T09:41:03;17.92;35.03
75134;HTU21D;73631;44.326;40.200;2024-02-26T09:43:32;18.09;37.05
75134;HTU21D;73631;44.326;40.200;2024-02-26T09:46:00;18.29;35.10
75134;HTU21D;73631;44.326;40.200;2024-02-26T09:48:28;18.44;34.63
75134;HTU21D;73631;44.326;40.200;2024-02-26T09:50:55;18.62;34.21
75134;HTU21D;73631;44.326;40.200;2024-02-26T09:53:22;18.80;33.88
75134;HTU21D;73631;44.326;40.200;2024-02-26T09:55:48;18.95;33.38
75134;HTU21D;73631;44.326;40.200;2024-02-26T09:58:16;19.11;33.15
75134;HTU21D;73631;44.326;40.200;2024-02-26T10:00:51;19.25;32.88
75134;HTU21D;73631;44.326;40.200;2024-02-26T10:03:21;19.39;32.67
75134;HTU21D;73631;44.326;40.200;2024-02-26T10:05:48;19.50;32.19
75134;HTU21D;73631;44.326;40.200;2024-02-26T10:08:16;19.65;32.16
75134;HTU21D;73631;44.326;40.200;2024-02-26T10:10:44;19.79;31.62
75134;HTU21D;73631;44.326;40.200;2024-02-26T10:13:11;19.86;31.35
75134;HTU21D;73631;44.326;40.200;2024-02-26T10:15:38;19.96;31.23
75134;HTU21D;73631;44.326;40.200;2024-02-26T10:18:07;20.09;31.12
75134;HTU21D;73631;44.326;40.200;2024-02-26T10:20:34;20.18;30.90
75134;HTU21D;73631;44.326;40.200;2024-02-26T10:23:05;20.28;31.06
75134;HTU21D;73631;44.326;40.200;2024-02-26T10:25:32;20.42;31.03
75134;HTU21D;73631;44.326;40.200;2024-02-26T10:28:02;20.50;30.66
75134;HTU21D;73631;44.326;40.200;2024-02-26T10:30:28;20.63;30.32
75134;HTU21D;73631;44.326;40.200;2024-02-26T10:32:56;20.76;30.35
75134;HTU21D;73631;44.326;40.200;2024-02-26T10:35:23;20.83;29.87
75134;HTU21D;73631;44.326;40.200;2024-02-26T10:37:50;20.76;29.71
75134;HTU21D;73631;44.326;40.200;2024-02-26T10:40:17;20.74;29.88
75134;HTU21D;73631;44.326;40.200;2024-02-26T10:42:43;20.77;29.73
75134;HTU21D;73631;44.326;40.200;2024-02-26T10:45:12;20.81;29.72
75134;HTU21D;73631;44.326;40.200;2024-02-26T10:47:40;20.92;29.68
75134;HTU21D;73631;44.326;40.200;2024-02-26T10:50:08;20.94;29.61
75134;HTU21D;73631;44.326;40.200;2024-02-26T10:52:36;20.87;29.62
75134;HTU21D;73631;44.326;40.200;2024-02-26T10:55:04;20.83;29.73
75134;HTU21D;73631;44.326;40.200;2024-02-26T10:57:41;20.88;30.19
75134;HTU21D;73631;44.326;40.200;2024-02-26T11:00:13;20.94;29.83
75134;HTU21D;73631;44.326;40.200;2024-02-26T11:02:40;21.02;30.00
75134;HTU21D;73631;44.326;40.200;2024-02-26T11:05:08;21.11;29.80
75134;HTU21D;73631;44.326;40.200;2024-02-26T11:07:35;21.23;29.80
75134;HTU21D;73631;44.326;40.200;2024-02-26T11:10:05;21.22;29.56
75134;HTU21D;73631;44.326;40.200;2024-02-26T11:12:35;21.19;29.39
75134;HTU21D;73631;44.326;40.200;2024-02-26T11:15:04;21.18;29.42
75134;HTU21D;73631;44.326;40.200;2024-02-26T11:17:31;21.24;29.37
75134;HTU21D;73631;44.326;40.200;2024-02-26T11:19:59;21.29;29.33
75134;HTU21D;73631;44.326;40.200;2024-02-26T11:22:28;21.22;29.40
75134;HTU21D;73631;44.326;40.200;2024-02-26T11:24:56;21.16;29.30
75134;HTU21D;73631;44.326;40.200;2024-02-26T11:27:27;21.15;29.40
75134;HTU21D;73631;44.326;40.200;2024-02-26T11:29:57;21.08;29.29
75134;HTU21D;73631;44.326;40.200;2024-02-26T11:32:27;21.03;29.35
75134;HTU21D;73631;44.326;40.200;2024-02-26T11:34:56;21.03;29.40
75134;HTU21D;73631;44.326;40.200;2024-02-26T11:37:24;21.08;29.26
75134;HTU21D;73631;44.326;40.200;2024-02-26T11:39:52;21.07;29.05
75134;HTU21D;73631;44.326;40.200;2024-02-26T11:42:23;21.04;29.01
75134;HTU21D;73631;44.326;40.200;2024-02-26T11:51:56;20.95;29.49
75134;HTU21D;73631;44.326;40.200;2024-02-26T11:57:27;20.92;30.08
75134;HTU21D;73631;44.326;40.200;2024-02-26T12:00:11;20.94;30.15
75134;HTU21D;73631;44.326;40.200;2024-02-26T12:02:45;20.89;29.22
75134;HTU21D;73631;44.326;40.200;2024-02-26T12:05:17;20.81;29.22
75134;HTU21D;73631;44.326;40.200;2024-02-26T12:07:48;20.74;29.26
75134;HTU21D;73631;44.326;40.200;2024-02-26T12:10:27;20.72;29.67
75134;HTU21D;73631;44.326;40.200;2024-02-26T12:13:07;20.72;29.74
75134;HTU21D;73631;44.326;40.200;2024-02-26T12:15:43;20.62;29.17
75134;HTU21D;73631;44.326;40.200;2024-02-26T12:18:15;20.51;29.27
75134;HTU21D;73631;44.326;40.200;2024-02-26T12:20:43;20.42;29.22
75134;HTU21D;73631;44.326;40.200;2024-02-26T12:23:15;20.37;29.39
75134;HTU21D;73631;44.326;40.200;2024-02-26T12:25:43;20.34;29.45
75134;HTU21D;73631;44.326;40.200;2024-02-26T12:28:10;20.36;29.26
75134;HTU21D;73631;44.326;40.200;2024-02-26T12:30:36;20.37;29.30
75134;HTU21D;73631;44.326;40.200;2024-02-26T12:33:03;20.43;29.18
75134;HTU21D;73631;44.326;40.200;2024-02-26T12:35:30;20.47;29.34
75134;HTU21D;73631;44.326;40.200;2024-02-26T12:37:58;20.50;29.16
75134;HTU21D;73631;44.326;40.200;2024-02-26T12:40:25;20.54;29.25
75134;HTU21D;73631;44.326;40.200;2024-02-26T12:42:54;20.61;29.38
75134;HTU21D;73631;44.326;40.200;2024-02-26T12:45:21;20.69;29.15
75134;HTU21D;73631;44.326;40.200;2024-02-26T12:47:48;20.74;29.05
75134;HTU21D;73631;44.326;40.200;2024-02-26T12:50:17;20.70;28.94
75134;HTU21D;73631;44.326;40.200;2024-02-26T12:52:46;20.56;28.95
75134;HTU21D;73631;44.326;40.200;2024-02-26T12:55:16;20.44;28.97
75134;HTU21D;73631;44.326;40.200;2024-02-26T12:57:45;20.31;29.02
75134;HTU21D;73631;44.326;40.200;2024-02-26T13:00:18;20.18;29.00
75134;HTU21D;73631;44.326;40.200;2024-02-26T13:02:46;20.07;29.26
75134;HTU21D;73631;44.326;40.200;2024-02-26T13:05:14;20.09;29.16
75134;HTU21D;73631;44.326;40.200;2024-02-26T13:07:45;20.01;29.13
75134;HTU21D;73631;44.326;40.200;2024-02-26T13:10:14;19.90;29.25
75134;HTU21D;73631;44.326;40.200;2024-02-26T13:12:47;19.83;29.27
75134;HTU21D;73631;44.326;40.200;2024-02-26T13:15:17;19.74;29.29
75134;HTU21D;73631;44.326;40.200;2024-02-26T13:17:45;19.62;29.28
75134;HTU21D;73631;44.326;40.200;2024-02-26T13:20:13;19.47;29.29
75134;HTU21D;73631;44.326;40.200;2024-02-26T13:22:41;19.33;29.42
75134;HTU21D;73631;44.326;40.200;2024-02-26T13:25:08;19.13;29.39
75134;HTU21D;73631;44.326;40.200;2024-02-26T13:27:34;18.96;29.51
75134;HTU21D;73631;44.326;40.200;2024-02-26T13:30:08;18.85;29.64
75134;HTU21D;73631;44.326;40.200;2024-02-26T13:32:37;18.74;29.75
75134;HTU21D;73631;44.326;40.200;2024-02-26T13:35:11;18.63;29.77
75134;HTU21D;73631;44.326;40.200;2024-02-26T13:37:39;18.54;29.87
75134;HTU21D;73631;44.326;40.200;2024-02-26T13:40:12;18.44;29.86
75134;HTU21D;73631;44.326;40.200;2024-02-26T13:42:38;18.35;29.68
75134;HTU21D;73631;44.326;40.200;2024-02-26T13:45:06;18.22;29.78
75134;HTU21D;73631;44.326;40.200;2024-02-26T13:47:34;18.08;29.90
75134;HTU21D;73631;44.326;40.200;2024-02-26T13:50:01;17.98;30.07
75134;HTU21D;73631;44.326;40.200;2024-02-26T13:52:27;17.89;30.11
75134;HTU21D;73631;44.326;40.200;2024-02-26T13:54:54;17.80;30.06
75134;HTU21D;73631;44.326;40.200;2024-02-26T13:57:20;17.69;30.11
75134;HTU21D;73631;44.326;40.200;2024-02-26T13:59:48;17.63;30.10
75134;HTU21D;73631;44.326;40.200;2024-02-26T14:02:15;17.56;30.15
75134;HTU21D;73631;44.326;40.200;2024-02-26T14:04:41;17.51;30.19
75134;HTU21D;73631;44.326;40.200;2024-02-26T14:07:08;17.46;30.19
75134;HTU21D;73631;44.326;40.200;2024-02-26T14:09:35;17.36;30.20
75134;HTU21D;73631;44.326;40.200;2024-02-26T14:12:02;17.24;30.25
75134;HTU21D;73631;44.326;40.200;2024-02-26T14:14:28;17.13;30.33
75134;HTU21D;73631;44.326;40.200;2024-02-26T14:16:55;16.95;30.36
75134;HTU21D;73631;44.326;40.200;2024-02-26T14:19:21;16.82;30.43
75134;HTU21D;73631;44.326;40.200;2024-02-26T14:21:48;16.67;30.47
75134;HTU21D;73631;44.326;40.200;2024-02-26T14:24:14;16.52;30.60
75134;HTU21D;73631;44.326;40.200;2024-02-26T14:26:41;16.41;30.63
75134;HTU21D;73631;44.326;40.200;2024-02-26T14:29:08;16.28;30.68
75134;HTU21D;73631;44.326;40.200;2024-02-26T14:31:34;16.15;30.79
75134;HTU21D;73631;44.326;40.200;2024-02-26T14:34:01;16.01;30.87
75134;HTU21D;73631;44.326;40.200;2024-02-26T14:36:27;15.87;30.91
75134;HTU21D;73631;44.326;40.200;2024-02-26T14:38:55;15.72;30.90
75134;HTU21D;73631;44.326;40.200;2024-02-26T14:41:21;15.57;30.97
75134;HTU21D;73631;44.326;40.200;2024-02-26T14:43:48;15.41;31.12
75134;HTU21D;73631;44.326;40.200;2024-02-26T14:46:14;15.25;31.19
75134;HTU21D;73631;44.326;40.200;2024-02-26T14:48:40;15.12;31.32
75134;HTU21D;73631;44.326;40.200;2024-02-26T14:51:07;15.00;31.42
75134;HTU21D;73631;44.326;40.200;2024-02-26T14:53:34;14.87;31.47
75134;HTU21D;73631;44.326;40.200;2024-02-26T14:56:01;14.74;31.71
75134;HTU21D;73631;44.326;40.200;2024-02-26T14:58:27;14.60;31.65
75134;HTU21D;73631;44.326;40.200;2024-02-26T15:00:55;14.49;31.71
75134;HTU21D;73631;44.326;40.200;2024-02-26T15:03:21;14.36;31.81
75134;HTU21D;73631;44.326;40.200;2024-02-26T15:05:48;14.24;31.89
75134;HTU21D;73631;44.326;40.200;2024-02-26T15:08:14;14.13;31.95
75134;HTU21D;73631;44.326;40.200;2024-02-26T15:10:42;14.05;32.02
75134;HTU21D;73631;44.326;40.200;2024-02-26T15:13:14;13.94;32.12
75134;HTU21D;73631;44.326;40.200;2024-02-26T15:15:42;13.85;32.03
75134;HTU21D;73631;44.326;40.200;2024-02-26T15:18:08;13.76;32.14